الصفحة الرئيسية
METAR-TAF:

METAR-TAF

مطار :

Harding County Airport

Buffalo, داكوتا الجنوبية, الولايات المتحدة

دائرة عرض: 45-36-16N, خط طول: 103-32-47W, ارتفاع: 915 متر

مراقبة الطقس الحالي

تاريخ ووقت الإصدار 58 دقيقة قبل الساعة 06:56UTC
ريح 7 عقدة من الغرب/الشمال الغربي
درجة الحرارة -2°درجة مئوية
الرطوبة 59%
ضغط 1013 hPa

METAR: K2WX 110656Z AUTO 30007KT M02/M09 A2992 RMK AO1 SLP162 T10221094 400221072

زمن: 00:54 (07:54 UTC)


TAF: مفقودة

أرصاد الطقس والتوقعات من أكثر من 4000 مطار (تقارير الطقس للمطار METAR والتنبؤ بالطقس بالمطارTAF).

المحطات المتاحة هي النقط الصفراء والحمراء على الخريطة.

حرك المؤشر فوق النقطة لمعرفة اسم المحطة.

ثم انقر لمعرفة أرصاد وتوقعات الطقس.

لتغيير الخارطة: اضغط على الأزرار الخضراء مع رمز الصليب الأسود للتكبير. على الزر الأخضر مع شرطة للتصغير، أو على الأسهم الخضراء للخرائط المجاورة.


METAR-TAF: